Time;durP1;ratioP1;P1;durP2;ratioP2;P2;SDS_P1;SDS_P2;PMS_P1;PMS_P2;Temp;Humidity;BMP_temperature;BMP_pressure;BME280_temperature;BME280_humidity;BME280_pressure;Samples;Min_cycle;Max_cycle;Signal;HPM_P1;HPM_P2
2022/07/10 00:00:13;;;;;;;7.07;6.47;;;;;;;;;;4970243;28;20231;-79
2022/07/10 00:02:41;;;;;;;7.47;6.80;;;;;;;;;;4975401;28;20283;-78
2022/07/10 00:05:07;;;;;;;6.67;6.07;;;;;;;;;;4976220;28;20213;-78
2022/07/10 00:07:34;;;;;;;7.00;6.40;;;;;;;;;;4973406;28;20208;-78
2022/07/10 00:10:00;;;;;;;7.80;7.07;;;;;;;;;;4974078;28;20180;-78
2022/07/10 00:12:26;;;;;;;6.90;6.33;;;;;;;;;;4972586;28;20196;-78
2022/07/10 00:14:52;;;;;;;7.37;6.70;;;;;;;;;;4974170;28;20216;-78
2022/07/10 00:17:18;;;;;;;8.00;7.20;;;;;;;;;;4975925;28;20645;-78
2022/07/10 00:19:45;;;;;;;12.97;7.00;;;;;;;;;;4954718;28;20215;-78
2022/07/10 00:22:11;;;;;;;7.60;7.00;;;;;;;;;;4974819;28;20234;-78
2022/07/10 00:24:37;;;;;;;8.23;6.70;;;;;;;;;;4972119;28;20197;-78
2022/07/10 00:27:03;;;;;;;7.07;6.40;;;;;;;;;;4973261;28;20267;-78
2022/07/10 00:29:30;;;;;;;6.10;5.60;;;;;;;;;;4971827;28;20188;-78
2022/07/10 00:31:56;;;;;;;7.00;6.30;;;;;;;;;;4973210;28;20275;-78
2022/07/10 00:34:22;;;;;;;6.93;6.30;;;;;;;;;;4972377;28;21860;-78
2022/07/10 00:36:48;;;;;;;7.27;6.57;;;;;;;;;;4973826;28;20185;-78
2022/07/10 00:39:14;;;;;;;7.30;6.60;;;;;;;;;;4973052;28;20271;-77
2022/07/10 00:41:40;;;;;;;7.93;7.23;;;;;;;;;;4961979;28;20272;-78
2022/07/10 00:44:06;;;;;;;7.43;6.73;;;;;;;;;;4975150;28;20322;-77
2022/07/10 00:46:33;;;;;;;7.70;7.07;;;;;;;;;;4968065;28;20217;-78
2022/07/10 00:48:59;;;;;;;7.40;6.70;;;;;;;;;;4964227;28;20522;-78
2022/07/10 00:51:26;;;;;;;7.30;6.60;;;;;;;;;;4972957;28;20731;-78
2022/07/10 00:53:53;;;;;;;6.80;6.20;;;;;;;;;;4970026;28;20209;-78
2022/07/10 00:56:21;;;;;;;7.43;6.73;;;;;;;;;;4973177;28;20248;-78
2022/07/10 00:58:47;;;;;;;6.80;6.10;;;;;;;;;;4973418;28;20207;-78
2022/07/10 01:01:14;;;;;;;7.43;6.43;;;;;;;;;;4972021;28;20279;-78
2022/07/10 01:03:40;;;;;;;7.00;6.40;;;;;;;;;;4961006;28;20609;-78
2022/07/10 01:06:06;;;;;;;7.13;6.47;;;;;;;;;;4979025;28;20787;-78
2022/07/10 01:08:33;;;;;;;6.80;6.20;;;;;;;;;;4973709;28;20184;-78
2022/07/10 01:11:00;;;;;;;5.83;5.33;;;;;;;;;;4972777;28;20177;-78
2022/07/10 01:13:27;;;;;;;5.93;5.33;;;;;;;;;;4971507;28;20304;-78
2022/07/10 01:15:53;;;;;;;5.60;4.80;;;;;;;;;;4957715;28;20188;-78
2022/07/10 01:18:20;;;;;;;5.43;4.93;;;;;;;;;;4972538;28;20247;-78
2022/07/10 01:20:46;;;;;;;5.20;4.70;;;;;;;;;;4974998;28;20184;-78
2022/07/10 01:23:12;;;;;;;6.13;5.53;;;;;;;;;;4979149;28;20205;-78
2022/07/10 01:25:38;;;;;;;8.90;5.80;;;;;;;;;;4981263;28;20223;-78
2022/07/10 01:28:05;;;;;;;6.27;5.67;;;;;;;;;;4973033;28;20192;-79
2022/07/10 01:30:31;;;;;;;6.90;6.30;;;;;;;;;;4980583;28;20189;-78
2022/07/10 01:32:57;;;;;;;6.37;5.77;;;;;;;;;;4967945;28;20204;-78
2022/07/10 01:35:29;;;;;;;7.33;6.50;;;;;;;;;;4972267;28;20534;-78
2022/07/10 01:37:55;;;;;;;7.30;6.43;;;;;;;;;;4972347;28;20220;-78
2022/07/10 01:40:21;;;;;;;7.93;5.90;;;;;;;;;;4972174;28;20573;-78
2022/07/10 01:42:47;;;;;;;6.23;5.73;;;;;;;;;;4970217;28;20347;-79
2022/07/10 01:45:16;;;;;;;8.00;6.10;;;;;;;;;;4973179;28;20295;-78
2022/07/10 01:47:43;;;;;;;6.23;5.63;;;;;;;;;;4967836;28;20224;-78
2022/07/10 01:50:10;;;;;;;6.53;5.20;;;;;;;;;;4972115;28;20177;-79
2022/07/10 01:52:36;;;;;;;6.50;5.13;;;;;;;;;;4972688;28;20192;-78
2022/07/10 01:55:03;;;;;;;7.33;5.23;;;;;;;;;;4972498;28;20195;-77
2022/07/10 01:57:30;;;;;;;5.67;5.00;;;;;;;;;;4972424;28;20188;-78
2022/07/10 01:59:56;;;;;;;6.30;5.50;;;;;;;;;;4973581;28;20185;-78
2022/07/10 02:02:22;;;;;;;6.13;5.53;;;;;;;;;;4971894;28;20304;-77
2022/07/10 02:04:48;;;;;;;6.37;5.77;;;;;;;;;;4977939;28;20275;-78
2022/07/10 02:07:16;;;;;;;5.77;5.23;;;;;;;;;;4970767;28;20216;-77
2022/07/10 02:09:42;;;;;;;6.87;5.00;;;;;;;;;;4971016;28;20188;-78
2022/07/10 02:12:09;;;;;;;8.37;5.70;;;;;;;;;;4963651;28;20848;-78
2022/07/10 02:14:36;;;;;;;6.50;5.00;;;;;;;;;;4971699;28;20259;-78
2022/07/10 02:17:02;;;;;;;5.40;4.87;;;;;;;;;;4970954;28;20596;-78
2022/07/10 02:19:28;;;;;;;5.07;4.53;;;;;;;;;;4971282;28;20173;-78
2022/07/10 02:21:55;;;;;;;4.33;3.93;;;;;;;;;;4971057;28;20568;-78
2022/07/10 02:24:21;;;;;;;5.53;4.13;;;;;;;;;;4958347;28;20497;-78
2022/07/10 02:26:47;;;;;;;5.67;3.97;;;;;;;;;;4971615;28;20591;-78
2022/07/10 02:29:14;;;;;;;5.07;3.90;;;;;;;;;;4969877;28;20254;-78
2022/07/10 02:31:40;;;;;;;4.27;3.47;;;;;;;;;;4971647;28;20184;-78
2022/07/10 02:34:10;;;;;;;4.23;3.57;;;;;;;;;;4971150;28;20832;-78
2022/07/10 02:36:36;;;;;;;4.10;3.33;;;;;;;;;;4962409;28;20593;-78
2022/07/10 02:39:03;;;;;;;6.33;3.40;;;;;;;;;;4970335;28;20247;-78
2022/07/10 02:41:30;;;;;;;4.67;3.40;;;;;;;;;;4970490;28;20192;-78
2022/07/10 02:43:56;;;;;;;5.40;3.93;;;;;;;;;;4971472;28;20204;-78
2022/07/10 02:46:22;;;;;;;5.23;3.53;;;;;;;;;;4971205;28;20200;-78
2022/07/10 02:48:48;;;;;;;4.30;3.80;;;;;;;;;;4971687;28;20526;-78
2022/07/10 02:51:15;;;;;;;4.97;3.43;;;;;;;;;;4969364;28;20189;-78
2022/07/10 02:53:41;;;;;;;5.73;3.40;;;;;;;;;;4967641;28;20220;-78
2022/07/10 02:56:07;;;;;;;4.73;3.30;;;;;;;;;;4970497;28;20419;-78
2022/07/10 02:58:34;;;;;;;3.33;3.10;;;;;;;;;;4972334;28;20211;-79
2022/07/10 03:01:00;;;;;;;6.80;3.80;;;;;;;;;;4975429;28;20675;-78
2022/07/10 03:03:26;;;;;;;3.97;3.50;;;;;;;;;;4970262;28;20266;-78
2022/07/10 03:05:53;;;;;;;5.93;3.50;;;;;;;;;;4953476;28;20216;-78
2022/07/10 03:08:19;;;;;;;6.20;3.57;;;;;;;;;;4964668;28;20192;-78
2022/07/10 03:10:45;;;;;;;5.10;3.50;;;;;;;;;;4971105;28;21624;-78
2022/07/10 03:13:11;;;;;;;5.27;2.70;;;;;;;;;;4972807;28;20203;-78
2022/07/10 03:15:38;;;;;;;4.47;2.83;;;;;;;;;;4978624;28;20196;-78
2022/07/10 03:18:04;;;;;;;4.23;2.63;;;;;;;;;;4983813;28;20219;-79
2022/07/10 03:20:30;;;;;;;4.57;3.07;;;;;;;;;;4976556;28;20193;-79
2022/07/10 03:22:56;;;;;;;4.17;2.60;;;;;;;;;;4971490;28;20212;-79
2022/07/10 03:25:22;;;;;;;3.17;2.73;;;;;;;;;;4971576;28;20208;-79
2022/07/10 03:27:48;;;;;;;4.43;2.50;;;;;;;;;;4970972;28;20177;-79
2022/07/10 03:30:15;;;;;;;3.67;2.57;;;;;;;;;;4969549;28;20251;-80
2022/07/10 03:32:41;;;;;;;5.93;2.80;;;;;;;;;;4971182;28;20210;-79
2022/07/10 03:35:07;;;;;;;3.53;2.60;;;;;;;;;;4971989;28;20715;-79
2022/07/10 03:37:33;;;;;;;2.73;2.43;;;;;;;;;;4966277;28;20235;-79
2022/07/10 03:39:59;;;;;;;4.67;2.80;;;;;;;;;;4974685;28;20234;-79
2022/07/10 03:42:25;;;;;;;4.60;2.87;;;;;;;;;;4976543;28;20220;-79
2022/07/10 03:44:52;;;;;;;4.33;2.67;;;;;;;;;;4978531;28;20208;-79
2022/07/10 03:47:18;;;;;;;3.70;2.60;;;;;;;;;;4974613;28;20192;-79
2022/07/10 03:49:44;;;;;;;3.83;2.80;;;;;;;;;;4976467;28;20185;-79
2022/07/10 03:52:10;;;;;;;4.17;2.40;;;;;;;;;;4973763;28;20204;-79
2022/07/10 03:54:37;;;;;;;3.27;2.53;;;;;;;;;;4971405;28;20173;-79
2022/07/10 03:59:48;;;;;;;3.70;2.60;;;;;;;;;;4973912;28;20227;-79
2022/07/10 04:02:14;;;;;;;5.07;2.67;;;;;;;;;;4973871;28;20172;-79
2022/07/10 04:04:40;;;;;;;4.33;2.47;;;;;;;;;;4974206;28;20180;-79
2022/07/10 04:07:06;;;;;;;3.73;2.43;;;;;;;;;;4974563;28;20184;-79
2022/07/10 04:09:33;;;;;;;4.00;2.40;;;;;;;;;;4973915;28;20259;-79
2022/07/10 04:11:59;;;;;;;4.13;2.77;;;;;;;;;;4973842;28;20574;-79
2022/07/10 04:14:25;;;;;;;3.87;2.50;;;;;;;;;;4973641;28;20208;-79
2022/07/10 04:16:51;;;;;;;5.47;2.60;;;;;;;;;;4971178;28;20188;-78
2022/07/10 04:19:18;;;;;;;3.50;2.57;;;;;;;;;;4970974;28;20191;-79
2022/07/10 04:21:44;;;;;;;5.50;2.73;;;;;;;;;;4974476;28;20773;-79
2022/07/10 04:24:10;;;;;;;4.30;2.80;;;;;;;;;;4975820;28;20721;-77
2022/07/10 04:26:36;;;;;;;5.00;2.40;;;;;;;;;;4960293;28;20235;-77
2022/07/10 04:29:02;;;;;;;2.40;2.20;;;;;;;;;;4974302;28;20279;-81
2022/07/10 04:31:28;;;;;;;3.27;2.40;;;;;;;;;;4974814;28;20665;-81
2022/07/10 04:33:57;;;;;;;5.43;2.53;;;;;;;;;;4972887;28;20329;-79
2022/07/10 04:36:24;;;;;;;4.93;2.37;;;;;;;;;;4972631;28;20188;-79
2022/07/10 04:38:50;;;;;;;4.07;2.30;;;;;;;;;;4969657;28;20239;-79
2022/07/10 04:41:16;;;;;;;4.50;2.37;;;;;;;;;;4970661;28;20196;-79
2022/07/10 04:43:42;;;;;;;3.20;2.30;;;;;;;;;;4953481;28;20204;-79
2022/07/10 04:46:09;;;;;;;5.67;2.60;;;;;;;;;;4964262;28;20200;-79
2022/07/10 04:48:35;;;;;;;3.50;2.40;;;;;;;;;;4968292;28;20208;-79
2022/07/10 04:51:01;;;;;;;3.53;2.20;;;;;;;;;;4968147;28;20221;-79
2022/07/10 04:53:28;;;;;;;3.30;2.20;;;;;;;;;;4972988;28;20221;-79
2022/07/10 04:55:54;;;;;;;6.20;2.40;;;;;;;;;;4972649;28;20295;-79
2022/07/10 04:58:20;;;;;;;4.33;2.00;;;;;;;;;;4970779;28;20391;-78
2022/07/10 05:00:46;;;;;;;4.03;2.03;;;;;;;;;;4973080;28;20216;-79
2022/07/10 05:03:12;;;;;;;3.57;2.00;;;;;;;;;;4955635;28;20239;-79
2022/07/10 05:05:39;;;;;;;5.23;2.10;;;;;;;;;;4955845;28;20200;-79
2022/07/10 05:08:05;;;;;;;3.60;2.37;;;;;;;;;;4975589;28;20230;-79
2022/07/10 05:10:31;;;;;;;5.50;2.40;;;;;;;;;;4973915;28;20224;-79
2022/07/10 05:12:57;;;;;;;6.30;2.20;;;;;;;;;;4954543;28;20245;-79
2022/07/10 05:15:23;;;;;;;4.73;2.40;;;;;;;;;;4971237;28;20191;-80
2022/07/10 05:17:49;;;;;;;3.73;2.10;;;;;;;;;;4970315;28;20196;-80
2022/07/10 05:20:16;;;;;;;10.13;2.13;;;;;;;;;;4970853;28;20208;-79
2022/07/10 05:22:42;;;;;;;4.50;2.20;;;;;;;;;;4971634;28;20207;-79
2022/07/10 05:25:08;;;;;;;5.20;1.93;;;;;;;;;;4971617;28;20220;-79
2022/07/10 05:27:34;;;;;;;3.50;2.10;;;;;;;;;;4969561;28;20246;-79
2022/07/10 05:30:01;;;;;;;4.93;1.60;;;;;;;;;;4970402;28;20204;-80
2022/07/10 05:32:27;;;;;;;3.73;1.70;;;;;;;;;;4976557;28;20714;-79
2022/07/10 05:34:53;;;;;;;5.63;2.00;;;;;;;;;;4971648;28;20177;-79
2022/07/10 05:37:19;;;;;;;3.80;1.80;;;;;;;;;;4974597;28;20193;-79
2022/07/10 05:39:45;;;;;;;3.20;1.60;;;;;;;;;;4974518;28;20267;-79
2022/07/10 05:42:11;;;;;;;5.23;1.70;;;;;;;;;;4972507;28;20657;-79
2022/07/10 05:44:37;;;;;;;4.90;2.13;;;;;;;;;;4969732;28;20176;-79
2022/07/10 05:47:05;;;;;;;5.30;2.00;;;;;;;;;;4973504;28;20208;-79
2022/07/10 05:49:32;;;;;;;5.87;1.90;;;;;;;;;;4970462;28;20187;-79
2022/07/10 05:51:58;;;;;;;4.10;2.00;;;;;;;;;;4972746;28;20200;-79
2022/07/10 05:54:24;;;;;;;5.13;2.00;;;;;;;;;;4971578;28;20699;-79
2022/07/10 05:56:51;;;;;;;4.23;1.80;;;;;;;;;;4971315;28;20184;-80
2022/07/10 05:59:17;;;;;;;4.50;1.80;;;;;;;;;;4972057;28;20550;-79
2022/07/10 06:01:43;;;;;;;2.37;1.60;;;;;;;;;;4973222;28;20189;-79
2022/07/10 06:04:09;;;;;;;3.67;2.10;;;;;;;;;;4971781;28;20204;-79
2022/07/10 06:06:35;;;;;;;3.17;2.00;;;;;;;;;;4968819;28;20200;-79
2022/07/10 06:09:01;;;;;;;5.57;2.57;;;;;;;;;;4968243;28;20980;-79
2022/07/10 06:11:28;;;;;;;7.40;2.00;;;;;;;;;;4951546;28;20197;-79
2022/07/10 06:13:54;;;;;;;4.23;2.00;;;;;;;;;;4969813;28;20207;-79
2022/07/10 06:16:20;;;;;;;3.47;1.83;;;;;;;;;;4967879;28;20219;-79
2022/07/10 06:18:46;;;;;;;3.53;1.77;;;;;;;;;;4970334;28;20919;-80
2022/07/10 06:21:12;;;;;;;5.70;1.73;;;;;;;;;;4968852;28;20580;-79
2022/07/10 06:23:38;;;;;;;7.90;2.17;;;;;;;;;;4969272;28;20355;-80
2022/07/10 06:26:05;;;;;;;4.07;1.80;;;;;;;;;;4969428;28;20208;-79
2022/07/10 06:28:31;;;;;;;5.10;1.80;;;;;;;;;;4967626;28;22091;-79
2022/07/10 06:30:57;;;;;;;5.53;1.60;;;;;;;;;;4954249;28;20196;-79
2022/07/10 06:33:23;;;;;;;3.73;1.83;;;;;;;;;;4968861;28;20216;-79
2022/07/10 06:35:50;;;;;;;3.53;1.80;;;;;;;;;;4953502;28;20196;-80
2022/07/10 06:38:16;;;;;;;2.90;1.50;;;;;;;;;;4970444;28;20188;-79
2022/07/10 06:40:42;;;;;;;4.67;1.60;;;;;;;;;;4938392;28;20239;-79
2022/07/10 06:43:09;;;;;;;2.80;1.40;;;;;;;;;;4958666;28;20556;-79
2022/07/10 06:45:35;;;;;;;4.33;1.50;;;;;;;;;;4971787;28;20207;-79
2022/07/10 06:48:01;;;;;;;3.43;1.40;;;;;;;;;;4971586;28;21094;-85
2022/07/10 06:50:34;;;;;;;3.93;1.40;;;;;;;;;;4976110;28;20177;-85
2022/07/10 06:53:02;;;;;;;2.80;1.27;;;;;;;;;;4962929;28;20700;-81
2022/07/10 06:55:29;;;;;;;3.20;1.20;;;;;;;;;;4984381;28;20195;-81
2022/07/10 06:57:55;;;;;;;5.13;1.50;;;;;;;;;;4976897;28;20192;-80
2022/07/10 07:00:22;;;;;;;2.93;1.67;;;;;;;;;;4974069;28;20200;-81
2022/07/10 07:02:48;;;;;;;3.13;1.17;;;;;;;;;;4969045;28;20216;-82
2022/07/10 07:05:14;;;;;;;4.37;1.30;;;;;;;;;;4973304;28;20224;-82
2022/07/10 07:07:41;;;;;;;2.67;1.10;;;;;;;;;;4966359;28;20192;-81
2022/07/10 07:10:09;;;;;;;2.93;1.00;;;;;;;;;;4975159;28;20595;-83
2022/07/10 07:12:36;;;;;;;3.10;1.40;;;;;;;;;;4975349;28;20299;-81
2022/07/10 07:15:03;;;;;;;2.57;1.20;;;;;;;;;;4979192;28;20192;-81
2022/07/10 07:17:46;;;;;;;5.23;1.20;;;;;;;;;;4972471;28;20575;-81
2022/07/10 07:23:09;;;;;;;4.07;1.30;;;;;;;;;;4971538;28;20212;-79
2022/07/10 07:25:37;;;;;;;4.07;1.40;;;;;;;;;;4969368;28;20263;-79
2022/07/10 07:28:04;;;;;;;3.60;1.50;;;;;;;;;;4971795;28;20220;-79
2022/07/10 07:30:30;;;;;;;4.50;1.20;;;;;;;;;;4954288;28;20297;-79
2022/07/10 07:32:56;;;;;;;2.30;1.07;;;;;;;;;;4971370;28;20219;-79
2022/07/10 07:35:22;;;;;;;2.60;1.10;;;;;;;;;;4973066;28;20247;-79
2022/07/10 07:37:50;;;;;;;2.17;1.00;;;;;;;;;;4970798;28;20181;-79
2022/07/10 07:40:19;;;;;;;3.87;1.17;;;;;;;;;;4954206;28;20554;-79
2022/07/10 07:42:46;;;;;;;2.50;1.03;;;;;;;;;;4970330;28;20212;-79
2022/07/10 07:45:12;;;;;;;3.97;1.17;;;;;;;;;;4971551;28;20689;-79
2022/07/10 07:47:45;;;;;;;2.40;1.10;;;;;;;;;;4973398;28;22240;-79
2022/07/10 07:50:12;;;;;;;2.73;1.17;;;;;;;;;;4972110;28;20189;-79
2022/07/10 07:52:38;;;;;;;2.13;1.00;;;;;;;;;;4971078;28;20200;-79
2022/07/10 07:55:04;;;;;;;1.90;1.10;;;;;;;;;;4971060;28;20188;-79
2022/07/10 07:57:30;;;;;;;1.30;0.93;;;;;;;;;;4972818;28;20193;-79
2022/07/10 07:59:57;;;;;;;1.50;0.93;;;;;;;;;;4974059;28;20181;-79
2022/07/10 08:02:23;;;;;;;2.00;1.13;;;;;;;;;;4974765;28;20176;-79
2022/07/10 08:04:49;;;;;;;3.33;1.10;;;;;;;;;;4980754;28;20187;-79
2022/07/10 08:07:15;;;;;;;5.40;1.30;;;;;;;;;;4973438;28;20180;-79
2022/07/10 08:09:42;;;;;;;3.30;1.03;;;;;;;;;;4971611;28;20184;-79
2022/07/10 08:12:08;;;;;;;2.20;0.90;;;;;;;;;;4956242;28;21013;-79
2022/07/10 08:14:35;;;;;;;2.70;1.20;;;;;;;;;;4972890;28;20180;-79
2022/07/10 08:17:01;;;;;;;3.90;1.20;;;;;;;;;;4972204;28;20243;-80
2022/07/10 08:19:27;;;;;;;1.90;1.10;;;;;;;;;;4974106;28;20188;-79
2022/07/10 08:21:53;;;;;;;2.90;1.07;;;;;;;;;;4981986;28;20273;-80
2022/07/10 08:24:19;;;;;;;2.60;1.20;;;;;;;;;;4984335;28;20204;-80
2022/07/10 08:26:45;;;;;;;2.87;1.10;;;;;;;;;;4980817;28;20230;-79
2022/07/10 08:29:12;;;;;;;2.57;1.10;;;;;;;;;;4980182;28;20212;-79
2022/07/10 08:31:39;;;;;;;3.00;1.00;;;;;;;;;;4975233;28;20203;-79
2022/07/10 08:34:05;;;;;;;2.17;1.00;;;;;;;;;;4976674;28;20212;-79
2022/07/10 08:36:32;;;;;;;4.53;1.07;;;;;;;;;;4974868;28;20180;-79
2022/07/10 08:38:58;;;;;;;4.90;1.10;;;;;;;;;;4975184;28;20180;-80
2022/07/10 08:41:26;;;;;;;3.43;1.10;;;;;;;;;;4974238;28;20185;-79
2022/07/10 08:43:52;;;;;;;3.40;1.10;;;;;;;;;;4973513;28;20707;-80
2022/07/10 08:46:18;;;;;;;2.60;1.00;;;;;;;;;;4974033;28;20339;-79
2022/07/10 08:48:47;;;;;;;1.30;1.00;;;;;;;;;;4974011;28;20185;-80
2022/07/10 08:51:16;;;;;;;2.00;1.00;;;;;;;;;;4975694;28;20192;-79
2022/07/10 08:53:44;;;;;;;3.20;1.20;;;;;;;;;;4974862;28;20211;-79
2022/07/10 08:56:10;;;;;;;3.87;1.00;;;;;;;;;;4974708;28;20551;-80
2022/07/10 08:58:37;;;;;;;2.80;1.03;;;;;;;;;;4973524;28;20188;-80
2022/07/10 09:01:03;;;;;;;2.33;0.90;;;;;;;;;;4975211;28;20184;-82
2022/07/10 09:03:31;;;;;;;2.50;0.97;;;;;;;;;;4956710;28;20688;-80
2022/07/10 09:05:57;;;;;;;2.00;1.00;;;;;;;;;;4970124;28;20610;-79
2022/07/10 09:08:24;;;;;;;3.70;1.10;;;;;;;;;;4971759;28;20185;-84
2022/07/10 09:10:51;;;;;;;2.17;1.10;;;;;;;;;;4956500;28;20184;-81
2022/07/10 09:13:17;;;;;;;2.63;1.10;;;;;;;;;;4974246;28;20683;-81
2022/07/10 09:15:48;;;;;;;1.87;1.00;;;;;;;;;;4975466;28;20180;-81
2022/07/10 09:18:18;;;;;;;4.43;1.10;;;;;;;;;;4972011;28;20239;-81
2022/07/10 09:20:46;;;;;;;2.10;1.00;;;;;;;;;;4971611;28;20185;-81
2022/07/10 09:23:17;;;;;;;2.53;1.00;;;;;;;;;;4971592;28;20204;-81
2022/07/10 09:25:44;;;;;;;3.37;1.10;;;;;;;;;;4968826;28;20208;-81
2022/07/10 09:28:10;;;;;;;2.93;0.83;;;;;;;;;;4972010;28;20180;-81
2022/07/10 09:30:37;;;;;;;3.47;1.10;;;;;;;;;;4970833;28;20254;-81
2022/07/10 09:33:15;;;;;;;1.70;1.10;;;;;;;;;;4972663;28;20212;-81
2022/07/10 09:36:06;;;;;;;1.17;0.90;;;;;;;;;;4970537;28;20668;-81
2022/07/10 09:38:43;;;;;;;2.10;1.00;;;;;;;;;;4972811;28;20219;-83
2022/07/10 09:41:23;;;;;;;3.00;1.20;;;;;;;;;;4971891;28;20635;-83
2022/07/10 09:43:54;;;;;;;1.97;0.93;;;;;;;;;;4956877;28;20212;-83
2022/07/10 09:46:21;;;;;;;2.20;1.00;;;;;;;;;;4968302;28;20312;-80
2022/07/10 09:48:48;;;;;;;2.90;1.00;;;;;;;;;;4978291;28;20192;-83
2022/07/10 09:51:14;;;;;;;2.43;1.10;;;;;;;;;;4980509;28;20180;-83
2022/07/10 09:53:40;;;;;;;2.43;1.03;;;;;;;;;;4965624;28;20207;-83
2022/07/10 09:56:08;;;;;;;4.00;0.90;;;;;;;;;;4974109;28;20193;-83
2022/07/10 09:58:35;;;;;;;2.00;1.10;;;;;;;;;;4981591;28;20193;-83
2022/07/10 10:01:03;;;;;;;2.30;1.10;;;;;;;;;;4978236;28;20234;-83
2022/07/10 10:03:31;;;;;;;3.07;0.93;;;;;;;;;;4956030;28;20235;-83
2022/07/10 10:06:02;;;;;;;2.90;1.00;;;;;;;;;;4975114;28;20223;-83
2022/07/10 10:08:37;;;;;;;3.10;1.10;;;;;;;;;;4976015;28;20181;-82
2022/07/10 10:11:05;;;;;;;2.37;1.00;;;;;;;;;;4974938;28;20640;-82
2022/07/10 10:13:31;;;;;;;4.00;1.23;;;;;;;;;;4963643;28;20302;-83
2022/07/10 10:15:57;;;;;;;4.47;1.17;;;;;;;;;;4963965;28;20859;-85
2022/07/10 10:18:24;;;;;;;2.53;1.17;;;;;;;;;;4963120;28;20535;-82
2022/07/10 10:20:52;;;;;;;3.00;1.10;;;;;;;;;;4977374;28;20203;-78
2022/07/10 10:23:22;;;;;;;2.13;1.00;;;;;;;;;;4956558;28;20627;-81
2022/07/10 10:25:53;;;;;;;2.47;0.93;;;;;;;;;;4954898;28;20683;-77
2022/07/10 10:28:23;;;;;;;4.30;1.30;;;;;;;;;;4974116;28;20216;-78
2022/07/10 10:30:50;;;;;;;1.47;0.87;;;;;;;;;;4970217;28;20267;-77
2022/07/10 10:33:32;;;;;;;3.60;1.10;;;;;;;;;;4982365;28;20213;-78
2022/07/10 10:35:58;;;;;;;2.47;0.97;;;;;;;;;;4973483;28;20192;-77
2022/07/10 10:38:25;;;;;;;2.30;0.93;;;;;;;;;;4956586;28;20231;-78
2022/07/10 10:40:51;;;;;;;2.17;0.97;;;;;;;;;;4973038;28;20271;-77
2022/07/10 10:43:19;;;;;;;2.57;0.90;;;;;;;;;;4968695;28;20242;-78
2022/07/10 10:45:46;;;;;;;3.03;0.90;;;;;;;;;;4973714;28;20204;-77
2022/07/10 10:48:17;;;;;;;3.20;1.20;;;;;;;;;;4973594;28;20181;-77
2022/07/10 10:50:43;;;;;;;4.73;1.20;;;;;;;;;;4977024;28;20268;-77
2022/07/10 10:53:28;;;;;;;2.47;0.97;;;;;;;;;;4961808;28;20243;-78
2022/07/10 10:56:00;;;;;;;1.93;1.00;;;;;;;;;;4976863;28;20184;-77
2022/07/10 10:58:27;;;;;;;1.27;1.03;;;;;;;;;;4990740;28;20184;-77
2022/07/10 11:01:24;;;;;;;2.60;1.00;;;;;;;;;;4978152;28;20224;-75
2022/07/10 11:04:08;;;;;;;1.47;1.10;;;;;;;;;;4989750;28;20231;-79
2022/07/10 11:06:45;;;;;;;2.50;0.97;;;;;;;;;;4962971;28;20204;-79
2022/07/10 11:09:24;;;;;;;2.40;1.10;;;;;;;;;;4975993;28;20204;-78
2022/07/10 11:12:09;;;;;;;2.33;0.87;;;;;;;;;;4975935;28;20195;-78
2022/07/10 11:14:40;;;;;;;4.43;1.20;;;;;;;;;;4975438;28;20181;-78
2022/07/10 11:17:08;;;;;;;2.17;1.00;;;;;;;;;;4965561;28;20207;-79
2022/07/10 11:19:35;;;;;;;2.77;1.10;;;;;;;;;;4958478;28;20276;-76
2022/07/10 11:22:11;;;;;;;3.10;1.10;;;;;;;;;;4980425;28;20203;-78
2022/07/10 11:24:41;;;;;;;1.50;0.90;;;;;;;;;;4976836;28;20268;-78
2022/07/10 11:27:07;;;;;;;2.77;1.00;;;;;;;;;;4980153;28;20675;-78
2022/07/10 11:29:37;;;;;;;2.03;1.10;;;;;;;;;;4974735;28;20228;-79
2022/07/10 11:32:04;;;;;;;2.73;1.10;;;;;;;;;;4975762;28;20184;-78
2022/07/10 11:34:36;;;;;;;2.33;0.97;;;;;;;;;;4969373;28;20181;-78
2022/07/10 11:37:03;;;;;;;2.20;1.20;;;;;;;;;;4975881;28;20194;-79
2022/07/10 11:39:29;;;;;;;2.80;1.13;;;;;;;;;;4963365;28;20211;-79
2022/07/10 11:41:55;;;;;;;2.37;1.20;;;;;;;;;;4977074;28;20271;-81
2022/07/10 11:44:22;;;;;;;2.10;1.13;;;;;;;;;;4978447;28;20661;-81
2022/07/10 11:46:50;;;;;;;5.33;1.43;;;;;;;;;;4972115;28;20198;-81
2022/07/10 11:49:17;;;;;;;2.83;1.20;;;;;;;;;;4978607;28;20599;-80
2022/07/10 11:51:44;;;;;;;3.10;1.23;;;;;;;;;;4977512;28;20251;-80
2022/07/10 11:54:18;;;;;;;1.83;1.10;;;;;;;;;;4975390;28;20199;-80
2022/07/10 11:56:52;;;;;;;3.40;1.40;;;;;;;;;;4978736;28;20200;-81
2022/07/10 11:59:19;;;;;;;2.70;1.10;;;;;;;;;;4977736;28;20169;-80
2022/07/10 12:01:49;;;;;;;2.67;1.20;;;;;;;;;;4957765;28;20582;-77
2022/07/10 12:04:17;;;;;;;3.20;1.30;;;;;;;;;;4971924;28;20213;-78
2022/07/10 12:06:44;;;;;;;4.47;1.40;;;;;;;;;;4974598;28;20214;-77
2022/07/10 12:09:12;;;;;;;5.00;1.33;;;;;;;;;;4978382;28;20197;-77
2022/07/10 12:11:40;;;;;;;3.60;1.20;;;;;;;;;;4974996;28;20177;-77
2022/07/10 12:14:22;;;;;;;4.53;1.37;;;;;;;;;;4978084;28;20213;-77
2022/07/10 12:16:51;;;;;;;3.03;1.30;;;;;;;;;;4974964;28;20184;-77
2022/07/10 12:19:22;;;;;;;2.70;1.40;;;;;;;;;;4974148;28;20195;-76
2022/07/10 12:21:49;;;;;;;2.87;1.30;;;;;;;;;;4982538;28;20192;-77
2022/07/10 12:24:19;;;;;;;2.20;1.17;;;;;;;;;;4982670;28;20212;-76
2022/07/10 12:26:46;;;;;;;3.03;1.20;;;;;;;;;;4974731;28;20200;-77
2022/07/10 12:29:19;;;;;;;2.70;1.20;;;;;;;;;;4974254;28;20259;-77
2022/07/10 12:31:47;;;;;;;2.73;1.30;;;;;;;;;;4974355;28;20180;-76
2022/07/10 12:34:13;;;;;;;2.27;1.17;;;;;;;;;;4974383;28;20196;-76
2022/07/10 12:36:46;;;;;;;2.57;1.23;;;;;;;;;;4974487;28;20188;-77
2022/07/10 12:39:14;;;;;;;3.77;2.13;;;;;;;;;;4973974;28;20248;-77
2022/07/10 12:41:59;;;;;;;2.73;1.57;;;;;;;;;;4974590;28;20236;-78
2022/07/10 12:44:36;;;;;;;1.50;1.17;;;;;;;;;;4974502;28;20288;-77
2022/07/10 12:47:12;;;;;;;3.37;1.40;;;;;;;;;;4974292;28;20213;-77
2022/07/10 12:49:53;;;;;;;3.23;1.13;;;;;;;;;;4973967;28;20172;-77
2022/07/10 12:52:20;;;;;;;3.17;1.50;;;;;;;;;;4964661;28;20232;-77
2022/07/10 12:54:46;;;;;;;3.27;1.30;;;;;;;;;;4974380;28;20181;-78
2022/07/10 12:57:12;;;;;;;1.90;1.20;;;;;;;;;;4974377;28;20699;-77
2022/07/10 12:59:38;;;;;;;5.30;1.40;;;;;;;;;;4974618;28;20189;-78
2022/07/10 13:02:16;;;;;;;3.03;1.30;;;;;;;;;;4973155;28;20733;-78
2022/07/10 13:04:52;;;;;;;4.77;1.30;;;;;;;;;;4957007;28;21550;-78
2022/07/10 13:07:18;;;;;;;4.13;1.67;;;;;;;;;;4974212;28;20212;-77
2022/07/10 13:09:45;;;;;;;3.57;1.57;;;;;;;;;;4973581;28;20239;-78
2022/07/10 13:12:11;;;;;;;4.40;1.67;;;;;;;;;;4957029;28;20605;-79
2022/07/10 13:14:37;;;;;;;2.83;1.50;;;;;;;;;;4982034;28;20196;-78
2022/07/10 13:17:03;;;;;;;4.73;1.60;;;;;;;;;;4973957;28;20190;-78
2022/07/10 13:19:29;;;;;;;2.67;1.20;;;;;;;;;;4973183;28;20193;-78
2022/07/10 13:21:55;;;;;;;3.30;1.40;;;;;;;;;;4973668;28;20194;-78
2022/07/10 13:24:21;;;;;;;4.10;1.57;;;;;;;;;;4973512;28;20204;-78
2022/07/10 13:26:48;;;;;;;3.73;1.20;;;;;;;;;;4973491;28;20213;-78
2022/07/10 13:29:14;;;;;;;4.43;1.50;;;;;;;;;;4972983;28;20196;-78
2022/07/10 13:31:40;;;;;;;3.37;1.30;;;;;;;;;;4973343;28;20189;-78
2022/07/10 13:34:06;;;;;;;2.03;1.30;;;;;;;;;;4959531;28;20633;-78
2022/07/10 13:36:32;;;;;;;2.47;1.20;;;;;;;;;;4973428;28;20194;-77
2022/07/10 13:38:58;;;;;;;2.67;1.20;;;;;;;;;;4973137;28;20550;-78
2022/07/10 13:41:26;;;;;;;2.10;1.17;;;;;;;;;;4973124;28;20347;-78
2022/07/10 13:43:52;;;;;;;2.83;1.60;;;;;;;;;;4973268;28;20236;-78
2022/07/10 13:46:18;;;;;;;3.27;1.50;;;;;;;;;;4973179;28;20207;-78
2022/07/10 13:48:45;;;;;;;2.90;1.30;;;;;;;;;;4972912;28;20197;-78
2022/07/10 13:51:11;;;;;;;2.27;1.13;;;;;;;;;;4973268;28;20180;-78
2022/07/10 13:53:37;;;;;;;3.20;1.43;;;;;;;;;;4969979;28;20635;-78
2022/07/10 13:56:07;;;;;;;1.70;1.20;;;;;;;;;;4971376;28;20183;-78
2022/07/10 13:58:34;;;;;;;3.10;1.40;;;;;;;;;;4972754;28;20182;-78
2022/07/10 14:01:01;;;;;;;1.60;1.17;;;;;;;;;;4971667;28;20186;-79
2022/07/10 14:03:27;;;;;;;3.17;1.20;;;;;;;;;;4972637;28;20211;-79
2022/07/10 14:05:53;;;;;;;2.70;1.20;;;;;;;;;;4972615;28;20216;-79
2022/07/10 14:08:19;;;;;;;3.43;1.47;;;;;;;;;;4972781;28;20191;-78
2022/07/10 14:10:46;;;;;;;2.47;1.20;;;;;;;;;;4972880;28;20231;-79
2022/07/10 14:13:13;;;;;;;1.67;1.00;;;;;;;;;;4972523;28;20232;-78
2022/07/10 14:15:40;;;;;;;3.10;1.20;;;;;;;;;;4972907;28;20181;-79
2022/07/10 14:18:06;;;;;;;2.70;1.20;;;;;;;;;;4973742;28;20212;-78
2022/07/10 14:21:02;;;;;;;3.37;1.27;;;;;;;;;;4970713;28;20207;-78
2022/07/10 14:23:19;;;;;;;4.30;1.30;;;;;;;;;;4969576;28;20228;-78
2022/07/10 14:25:45;;;;;;;2.03;1.40;;;;;;;;;;4972922;28;20218;-78
2022/07/10 14:28:13;;;;;;;2.23;1.20;;;;;;;;;;4972636;28;20215;-78
2022/07/10 14:30:40;;;;;;;3.10;1.20;;;;;;;;;;4962388;28;20203;-78
2022/07/10 14:33:06;;;;;;;2.33;1.30;;;;;;;;;;4972277;28;20213;-78
2022/07/10 14:35:32;;;;;;;1.93;1.13;;;;;;;;;;4972720;28;20192;-78
2022/07/10 14:37:58;;;;;;;2.53;1.40;;;;;;;;;;4986092;28;20228;-78
2022/07/10 14:40:24;;;;;;;2.97;1.30;;;;;;;;;;4972277;28;20199;-79
2022/07/10 14:42:50;;;;;;;3.10;1.10;;;;;;;;;;4972470;28;20208;-78
2022/07/10 14:45:16;;;;;;;2.40;1.17;;;;;;;;;;4965768;28;20262;-78
2022/07/10 14:47:43;;;;;;;2.37;1.10;;;;;;;;;;4972691;28;20241;-78
2022/07/10 14:50:09;;;;;;;1.77;0.90;;;;;;;;;;4972484;28;20187;-78